createdAt,value
2022-08-08T00:01:00.024Z,101264.00
2022-08-08T00:03:31.520Z,101262.00
2022-08-08T00:06:41.868Z,101257.00
2022-08-08T00:09:18.159Z,101259.00
2022-08-08T00:12:07.111Z,101256.00
2022-08-08T00:15:17.709Z,101264.00
2022-08-08T00:18:12.283Z,101258.00
2022-08-08T00:20:50.548Z,101254.00
2022-08-08T00:23:55.779Z,101255.00
2022-08-08T00:26:44.861Z,101262.00
2022-08-08T00:29:44.754Z,101252.00
2022-08-08T00:32:35.474Z,101262.00
2022-08-08T00:35:23.153Z,101261.00
2022-08-08T00:38:01.781Z,101262.00
2022-08-08T00:41:09.860Z,101259.00
2022-08-08T00:44:19.596Z,101263.00
2022-08-08T00:46:57.783Z,101266.00
2022-08-08T00:49:58.791Z,101259.00
2022-08-08T00:53:03.840Z,101262.00
2022-08-08T00:56:02.065Z,101257.00
2022-08-08T00:59:43.142Z,101258.00
2022-08-08T01:03:58.195Z,101259.00
2022-08-08T01:06:47.506Z,101257.00
2022-08-08T01:10:10.235Z,101261.00
2022-08-08T01:13:23.226Z,101253.00
2022-08-08T01:16:46.557Z,101256.00
2022-08-08T01:20:02.894Z,101256.00
2022-08-08T01:24:03.381Z,101259.00
2022-08-08T01:26:48.189Z,101258.00
2022-08-08T01:30:20.133Z,101257.00
2022-08-08T01:33:23.953Z,101259.00
2022-08-08T01:36:08.201Z,101248.00
2022-08-08T01:39:28.213Z,101246.00
2022-08-08T01:42:46.552Z,101247.00
2022-08-08T01:45:56.876Z,101245.00
2022-08-08T01:48:51.237Z,101254.00
2022-08-08T01:52:05.795Z,101247.00
2022-08-08T01:56:26.319Z,101256.00
2022-08-08T01:58:38.663Z,101252.00
2022-08-08T02:02:02.812Z,101243.00
2022-08-08T02:05:09.239Z,101247.00
2022-08-08T02:08:06.957Z,101247.00
2022-08-08T02:11:23.030Z,101245.00
2022-08-08T02:14:07.898Z,101243.00
2022-08-08T02:16:57.916Z,101247.00
2022-08-08T02:20:07.598Z,101254.00
2022-08-08T02:22:46.031Z,101249.00
2022-08-08T02:25:43.722Z,101247.00
2022-08-08T02:29:24.468Z,101250.00
2022-08-08T02:32:40.770Z,101247.00
2022-08-08T02:36:03.396Z,101252.00
2022-08-08T02:39:42.633Z,101248.00
2022-08-08T02:42:38.124Z,101249.00
2022-08-08T02:45:53.971Z,101246.00
2022-08-08T02:49:09.779Z,101244.00
2022-08-08T02:52:34.964Z,101248.00
2022-08-08T02:55:36.489Z,101246.00
2022-08-08T02:58:50.439Z,101259.00
2022-08-08T03:02:02.745Z,101265.00
2022-08-08T03:05:04.547Z,101264.00
2022-08-08T03:08:10.053Z,101261.00
2022-08-08T03:11:31.882Z,101260.00
2022-08-08T03:16:02.086Z,101265.00
2022-08-08T03:18:31.148Z,101265.00
2022-08-08T03:21:01.732Z,101263.00
2022-08-08T03:23:56.243Z,101257.00
2022-08-08T03:26:32.512Z,101261.00
2022-08-08T03:29:26.732Z,101263.00
2022-08-08T03:32:30.883Z,101266.00
2022-08-08T03:34:59.734Z,101268.00
2022-08-08T03:37:59.436Z,101266.00
2022-08-08T03:40:30.343Z,101270.00
2022-08-08T03:43:16.814Z,101266.00
2022-08-08T03:46:04.862Z,101268.00
2022-08-08T03:49:09.298Z,101271.00
2022-08-08T03:51:47.144Z,101277.00
2022-08-08T03:54:24.089Z,101280.00
2022-08-08T03:58:32.274Z,101287.00
2022-08-08T04:00:02.681Z,101294.00
2022-08-08T04:02:47.272Z,101288.00
2022-08-08T04:05:27.431Z,101293.00
2022-08-08T04:08:03.139Z,101296.00
2022-08-08T04:10:33.580Z,101292.00
2022-08-08T04:13:17.422Z,101303.00
2022-08-08T04:15:55.223Z,101291.00
2022-08-08T04:18:48.693Z,101294.00
2022-08-08T04:21:23.368Z,101290.00
2022-08-08T04:24:05.408Z,101284.00
2022-08-08T04:26:57.208Z,101281.00
2022-08-08T04:29:37.124Z,101293.00
2022-08-08T04:32:10.824Z,101301.00
2022-08-08T04:34:55.425Z,101306.00
2022-08-08T04:37:32.435Z,101303.00
2022-08-08T04:40:10.489Z,101302.00
2022-08-08T04:42:56.789Z,101300.00
2022-08-08T04:45:51.546Z,101296.00
2022-08-08T04:48:21.911Z,101305.00
2022-08-08T04:50:50.966Z,101306.00
2022-08-08T04:54:26.783Z,101304.00
2022-08-08T04:56:17.762Z,101314.00
2022-08-08T04:58:46.212Z,101316.00
2022-08-08T05:01:16.530Z,101321.00
2022-08-08T05:04:11.317Z,101320.00
2022-08-08T05:06:41.025Z,101320.00
2022-08-08T05:09:10.596Z,101311.00
2022-08-08T05:11:42.088Z,101321.00
2022-08-08T05:14:16.251Z,101309.00
2022-08-08T05:16:55.080Z,101316.00
2022-08-08T05:20:11.295Z,101320.00
2022-08-08T05:22:22.636Z,101317.00
2022-08-08T05:24:51.619Z,101319.00
2022-08-08T05:27:22.159Z,101315.00
2022-08-08T05:29:53.122Z,101320.00
2022-08-08T05:32:27.748Z,101326.00
2022-08-08T05:35:04.492Z,101325.00
2022-08-08T05:37:54.009Z,101327.00
2022-08-08T05:40:54.521Z,101325.00
2022-08-08T05:43:39.595Z,101324.00
2022-08-08T05:46:24.834Z,101328.00
2022-08-08T05:48:55.916Z,101324.00
2022-08-08T05:51:48.028Z,101329.00
2022-08-08T05:54:27.593Z,101332.00
2022-08-08T05:57:57.746Z,101328.00
2022-08-08T06:00:19.719Z,101330.00
2022-08-08T06:03:13.203Z,101332.00
2022-08-08T06:06:05.069Z,101324.00
2022-08-08T06:08:53.276Z,101331.00
2022-08-08T06:11:28.345Z,101322.00
2022-08-08T06:13:58.417Z,101330.00
2022-08-08T06:16:30.323Z,101335.00
2022-08-08T06:19:25.785Z,101336.00
2022-08-08T06:21:57.568Z,101337.00
2022-08-08T06:24:47.328Z,101334.00
2022-08-08T06:27:47.602Z,101341.00
2022-08-08T06:30:20.014Z,101332.00
2022-08-08T06:33:00.993Z,101341.00
2022-08-08T06:36:09.140Z,101340.00
2022-08-08T06:38:27.762Z,101339.00
2022-08-08T06:41:08.089Z,101350.00
2022-08-08T06:43:56.897Z,101349.00
2022-08-08T06:46:30.043Z,101363.00
2022-08-08T06:49:01.005Z,101355.00
2022-08-08T06:51:46.699Z,101356.00
2022-08-08T06:54:17.692Z,101361.00
2022-08-08T06:56:52.742Z,101356.00
2022-08-08T06:59:22.562Z,101357.00
2022-08-08T07:02:26.988Z,101357.00
2022-08-08T07:04:58.626Z,101362.00
2022-08-08T07:07:51.936Z,101360.00
2022-08-08T07:10:25.081Z,101363.00
2022-08-08T07:13:17.845Z,101363.00
2022-08-08T07:16:10.791Z,101373.00
2022-08-08T07:18:55.943Z,101367.00
2022-08-08T07:21:44.547Z,101379.00
2022-08-08T07:24:35.023Z,101370.00
2022-08-08T07:27:09.249Z,101367.00
2022-08-08T07:30:00.999Z,101371.00
2022-08-08T07:32:29.335Z,101370.00
2022-08-08T07:35:06.337Z,101372.00
2022-08-08T07:37:56.255Z,101380.00
2022-08-08T07:40:40.623Z,101381.00
2022-08-08T07:43:13.562Z,101385.00
2022-08-08T07:46:04.886Z,101383.00
2022-08-08T07:48:36.789Z,101383.00
2022-08-08T07:51:05.303Z,101381.00
2022-08-08T07:54:27.294Z,101390.00
2022-08-08T07:57:43.277Z,101392.00
2022-08-08T08:00:18.312Z,101389.00
2022-08-08T08:03:10.974Z,101389.00
2022-08-08T08:05:54.438Z,101389.00
2022-08-08T08:08:39.618Z,101394.00
2022-08-08T08:11:23.608Z,101386.00
2022-08-08T08:14:10.634Z,101397.00
2022-08-08T08:16:50.493Z,101407.00
2022-08-08T08:19:21.222Z,101405.00
2022-08-08T08:21:58.452Z,101404.00
2022-08-08T08:24:35.690Z,101399.00
2022-08-08T08:27:09.313Z,101406.00
2022-08-08T08:29:38.822Z,101405.00
2022-08-08T08:32:09.031Z,101413.00
2022-08-08T08:34:43.181Z,101406.00
2022-08-08T08:37:20.215Z,101408.00
2022-08-08T08:40:01.955Z,101406.00
2022-08-08T08:42:36.839Z,101404.00
2022-08-08T08:45:22.884Z,101411.00
2022-08-08T08:48:00.760Z,101403.00
2022-08-08T08:50:35.989Z,101405.00
2022-08-08T08:53:54.423Z,101405.00
2022-08-08T08:56:12.489Z,101405.00
2022-08-08T08:58:46.994Z,101408.00
2022-08-08T09:01:45.621Z,101397.00
2022-08-08T09:04:31.499Z,101406.00
2022-08-08T09:07:20.200Z,101404.00
2022-08-08T09:09:57.352Z,101405.00
2022-08-08T09:12:37.739Z,101406.00
2022-08-08T09:15:06.926Z,101404.00
2022-08-08T09:17:52.363Z,101407.00
2022-08-08T09:21:59.246Z,101408.00
2022-08-08T09:23:25.464Z,101406.00
2022-08-08T09:26:06.514Z,101408.00
2022-08-08T09:28:40.708Z,101406.00
2022-08-08T09:31:56.079Z,101404.00
2022-08-08T09:34:35.127Z,101401.00
2022-08-08T09:37:57.477Z,101402.00
2022-08-08T09:40:11.831Z,101404.00
2022-08-08T09:42:51.199Z,101401.00
2022-08-08T09:45:55.432Z,101397.00
2022-08-08T09:48:36.538Z,101395.00
2022-08-08T09:51:10.139Z,101402.00
2022-08-08T09:53:56.534Z,101398.00
2022-08-08T09:56:41.286Z,101395.00
2022-08-08T09:59:50.196Z,101399.00
2022-08-08T10:02:12.565Z,101393.00
2022-08-08T10:04:48.031Z,101387.00
2022-08-08T10:07:17.529Z,101392.00
2022-08-08T10:10:00.885Z,101388.00
2022-08-08T10:12:53.662Z,101393.00
2022-08-08T10:15:25.184Z,101392.00
2022-08-08T10:18:05.573Z,101401.00
2022-08-08T10:20:58.215Z,101396.00
2022-08-08T10:23:58.670Z,101394.00
2022-08-08T10:26:52.097Z,101393.00
2022-08-08T10:29:58.741Z,101386.00
2022-08-08T10:32:34.065Z,101394.00
2022-08-08T10:35:20.442Z,101395.00
2022-08-08T10:38:08.607Z,101391.00
2022-08-08T10:40:39.236Z,101388.00
2022-08-08T10:43:09.707Z,101392.00
2022-08-08T10:45:55.625Z,101394.00
2022-08-08T10:48:38.711Z,101390.00
2022-08-08T10:51:47.213Z,101382.00
2022-08-08T10:54:25.362Z,101384.00
2022-08-08T10:57:05.502Z,101377.00
2022-08-08T10:59:39.942Z,101384.00
2022-08-08T11:02:10.004Z,101380.00
2022-08-08T11:04:53.346Z,101384.00
2022-08-08T11:08:31.165Z,101370.00
2022-08-08T11:10:29.436Z,101377.00
2022-08-08T11:13:29.113Z,101374.00
2022-08-08T11:16:01.222Z,101374.00
2022-08-08T11:18:37.324Z,101376.00
2022-08-08T11:21:09.943Z,101370.00
2022-08-08T11:23:42.546Z,101374.00
2022-08-08T11:26:19.339Z,101374.00
2022-08-08T11:28:47.884Z,101374.00
2022-08-08T11:31:20.819Z,101374.00
2022-08-08T11:34:03.075Z,101378.00
2022-08-08T11:36:36.345Z,101369.00
2022-08-08T11:39:11.063Z,101367.00
2022-08-08T11:41:42.220Z,101373.00
2022-08-08T11:44:13.668Z,101364.00
2022-08-08T11:46:41.648Z,101360.00
2022-08-08T11:49:14.700Z,101370.00
2022-08-08T11:51:49.846Z,101363.00
2022-08-08T11:54:38.335Z,101365.00
2022-08-08T11:57:17.285Z,101364.00
2022-08-08T12:00:00.975Z,101360.00
2022-08-08T12:02:54.615Z,101361.00
2022-08-08T12:05:38.752Z,101362.00
2022-08-08T12:08:06.608Z,101365.00
2022-08-08T12:10:36.454Z,101355.00
2022-08-08T12:13:09.671Z,101365.00
2022-08-08T12:15:46.935Z,101355.00
2022-08-08T12:18:25.880Z,101357.00
2022-08-08T12:20:56.510Z,101351.00
2022-08-08T12:23:43.907Z,101346.00
2022-08-08T12:26:28.246Z,101347.00
2022-08-08T12:29:40.488Z,101347.00
2022-08-08T12:32:22.373Z,101341.00
2022-08-08T12:35:04.755Z,101346.00
2022-08-08T12:38:01.110Z,101343.00
2022-08-08T12:40:55.913Z,101343.00
2022-08-08T12:43:46.312Z,101348.00
2022-08-08T12:46:25.434Z,101344.00
2022-08-08T12:51:53.757Z,101356.00
2022-08-08T12:54:30.246Z,101348.00
2022-08-08T12:57:12.322Z,101346.00
2022-08-08T13:00:05.199Z,101355.00
2022-08-08T13:02:51.560Z,101342.00
2022-08-08T13:05:26.583Z,101345.00
2022-08-08T13:08:20.749Z,101345.00
2022-08-08T13:10:58.302Z,101350.00
2022-08-08T13:13:35.157Z,101345.00
2022-08-08T13:16:26.406Z,101344.00
2022-08-08T13:19:09.217Z,101345.00
2022-08-08T13:22:04.719Z,101341.00
2022-08-08T13:24:46.442Z,101348.00
2022-08-08T13:27:35.758Z,101335.00
2022-08-08T13:30:06.832Z,101334.00
2022-08-08T13:32:36.917Z,101340.00
2022-08-08T13:35:25.018Z,101337.00
2022-08-08T13:38:08.073Z,101333.00
2022-08-08T13:40:41.401Z,101333.00
2022-08-08T13:43:09.398Z,101338.00
2022-08-08T13:45:37.689Z,101340.00
2022-08-08T13:48:14.343Z,101336.00
2022-08-08T13:50:55.032Z,101327.00
2022-08-08T13:53:36.309Z,101336.00
2022-08-08T13:56:11.404Z,101336.00
2022-08-08T13:58:56.549Z,101332.00
2022-08-08T14:01:52.732Z,101332.00
2022-08-08T14:04:27.701Z,101334.00
2022-08-08T14:07:04.970Z,101337.00
2022-08-08T14:10:02.140Z,101336.00
2022-08-08T14:12:32.572Z,101345.00
2022-08-08T14:15:03.084Z,101332.00
2022-08-08T14:17:57.631Z,101330.00
2022-08-08T14:20:56.787Z,101333.00
2022-08-08T14:23:21.505Z,101331.00
2022-08-08T14:26:11.550Z,101336.00
2022-08-08T14:28:40.226Z,101342.00
2022-08-08T14:31:20.502Z,101332.00
2022-08-08T14:34:00.246Z,101328.00
2022-08-08T14:36:38.970Z,101326.00
2022-08-08T14:39:11.622Z,101329.00
2022-08-08T14:41:54.748Z,101330.00
2022-08-08T14:44:33.648Z,101326.00
2022-08-08T14:47:20.958Z,101330.00
2022-08-08T14:50:06.390Z,101329.00
2022-08-08T14:52:59.145Z,101330.00
2022-08-08T14:55:41.302Z,101335.00
2022-08-08T14:58:16.441Z,101339.00
2022-08-08T15:00:49.513Z,101325.00
2022-08-08T15:03:18.430Z,101324.00
2022-08-08T15:05:53.356Z,101330.00
2022-08-08T15:08:34.965Z,101325.00
2022-08-08T15:11:09.470Z,101326.00
2022-08-08T15:14:03.168Z,101321.00
2022-08-08T15:16:34.538Z,101320.00
2022-08-08T15:19:04.100Z,101316.00
2022-08-08T15:21:33.756Z,101318.00
2022-08-08T15:24:13.685Z,101323.00
2022-08-08T15:26:46.817Z,101319.00
2022-08-08T15:29:24.606Z,101319.00
2022-08-08T15:32:03.197Z,101312.00
2022-08-08T15:34:42.116Z,101319.00
2022-08-08T15:37:10.561Z,101322.00
2022-08-08T15:39:41.046Z,101320.00
2022-08-08T15:42:17.977Z,101317.00
2022-08-08T15:44:58.183Z,101321.00
2022-08-08T15:47:25.913Z,101317.00
2022-08-08T15:49:53.463Z,101322.00
2022-08-08T15:52:23.075Z,101317.00
2022-08-08T15:54:53.107Z,101319.00
2022-08-08T15:57:23.358Z,101323.00
2022-08-08T16:00:05.259Z,101318.00
2022-08-08T16:02:50.177Z,101325.00
2022-08-08T16:05:21.196Z,101314.00
2022-08-08T16:07:52.098Z,101322.00
2022-08-08T16:13:05.466Z,101315.00
2022-08-08T16:13:33.555Z,101319.00
2022-08-08T16:16:13.141Z,101318.00
2022-08-08T16:18:56.805Z,101316.00
2022-08-08T16:21:32.153Z,101317.00
2022-08-08T16:24:06.731Z,101315.00
2022-08-08T16:26:40.259Z,101319.00
2022-08-08T16:29:36.970Z,101315.00
2022-08-08T16:32:11.289Z,101316.00
2022-08-08T16:34:47.512Z,101313.00
2022-08-08T16:37:16.243Z,101316.00
2022-08-08T16:39:59.746Z,101316.00
2022-08-08T16:42:30.543Z,101316.00
2022-08-08T16:44:59.723Z,101311.00
2022-08-08T16:47:40.431Z,101312.00
2022-08-08T16:50:15.408Z,101316.00
2022-08-08T16:55:00.748Z,101315.00
2022-08-08T16:55:55.593Z,101320.00
2022-08-08T16:58:31.606Z,101317.00
2022-08-08T17:01:15.520Z,101322.00
2022-08-08T17:03:58.592Z,101318.00
2022-08-08T17:06:37.666Z,101312.00
2022-08-08T17:09:15.330Z,101312.00
2022-08-08T17:11:49.089Z,101314.00
2022-08-08T17:14:33.003Z,101317.00
2022-08-08T17:17:06.327Z,101313.00
2022-08-08T17:19:54.140Z,101313.00
2022-08-08T17:22:33.150Z,101320.00
2022-08-08T17:25:08.665Z,101320.00
2022-08-08T17:27:46.233Z,101322.00
2022-08-08T17:30:23.327Z,101328.00
2022-08-08T17:34:37.300Z,101329.00
2022-08-08T17:35:55.830Z,101325.00
2022-08-08T17:38:31.014Z,101325.00
2022-08-08T17:40:58.955Z,101331.00
2022-08-08T17:43:26.724Z,101331.00
2022-08-08T17:45:54.890Z,101336.00
2022-08-08T17:48:31.010Z,101338.00
2022-08-08T17:50:59.074Z,101342.00
2022-08-08T17:53:43.210Z,101340.00
2022-08-08T17:56:11.413Z,101338.00
2022-08-08T17:58:40.036Z,101348.00
2022-08-08T18:01:10.252Z,101344.00
2022-08-08T18:03:38.695Z,101344.00
2022-08-08T18:06:19.905Z,101358.00
2022-08-08T18:08:49.866Z,101360.00
2022-08-08T18:11:23.129Z,101361.00
2022-08-08T18:13:50.585Z,101356.00
2022-08-08T18:16:23.091Z,101369.00
2022-08-08T18:18:56.721Z,101366.00
2022-08-08T18:21:59.507Z,101372.00
2022-08-08T18:24:21.360Z,101376.00
2022-08-08T18:26:54.307Z,101375.00
2022-08-08T18:29:35.523Z,101379.00
2022-08-08T18:32:07.337Z,101384.00
2022-08-08T18:34:43.242Z,101385.00
2022-08-08T18:37:33.547Z,101388.00
2022-08-08T18:39:59.411Z,101394.00
2022-08-08T18:42:28.056Z,101400.00
2022-08-08T18:44:57.391Z,101400.00
2022-08-08T18:47:27.200Z,101401.00
2022-08-08T18:50:00.308Z,101401.00
2022-08-08T18:52:34.720Z,101406.00
2022-08-08T18:55:10.853Z,101412.00
2022-08-08T18:57:44.954Z,101406.00
2022-08-08T19:00:20.183Z,101413.00
2022-08-08T19:02:56.715Z,101415.00
2022-08-08T19:05:34.689Z,101420.00
2022-08-08T19:08:24.774Z,101424.00
2022-08-08T19:10:58.930Z,101427.00
2022-08-08T19:13:53.685Z,101441.00
2022-08-08T19:16:19.163Z,101435.00
2022-08-08T19:18:56.128Z,101442.00
2022-08-08T19:21:33.048Z,101440.00
2022-08-08T19:24:05.629Z,101445.00
2022-08-08T19:26:37.492Z,101445.00
2022-08-08T19:29:06.456Z,101448.00
2022-08-08T19:31:35.380Z,101449.00
2022-08-08T19:34:35.838Z,101449.00
2022-08-08T19:36:58.789Z,101456.00
2022-08-08T19:39:35.578Z,101458.00
2022-08-08T19:42:06.902Z,101465.00
2022-08-08T19:44:45.448Z,101461.00
2022-08-08T19:47:15.779Z,101464.00
2022-08-08T19:49:59.779Z,101468.00
2022-08-08T19:52:35.139Z,101470.00
2022-08-08T19:55:12.892Z,101475.00
2022-08-08T19:57:44.876Z,101486.00
2022-08-08T20:00:29.205Z,101483.00
2022-08-08T20:02:57.924Z,101481.00
2022-08-08T20:06:13.967Z,101479.00
2022-08-08T20:08:28.581Z,101473.00
2022-08-08T20:11:01.407Z,101484.00
2022-08-08T20:14:12.511Z,101480.00
2022-08-08T20:16:19.100Z,101481.00
2022-08-08T20:18:52.937Z,101486.00
2022-08-08T20:21:25.845Z,101484.00
2022-08-08T20:23:57.963Z,101487.00
2022-08-08T20:26:31.873Z,101493.00
2022-08-08T20:29:08.463Z,101488.00
2022-08-08T20:31:47.327Z,101482.00
2022-08-08T20:34:31.681Z,101490.00
2022-08-08T20:37:03.251Z,101484.00
2022-08-08T20:39:39.117Z,101488.00
2022-08-08T20:42:09.533Z,101489.00
2022-08-08T20:44:37.938Z,101493.00
2022-08-08T20:47:23.025Z,101498.00
2022-08-08T20:49:55.798Z,101492.00
2022-08-08T20:52:27.974Z,101502.00
2022-08-08T20:54:57.361Z,101497.00
2022-08-08T20:57:27.713Z,101501.00
2022-08-08T20:59:56.610Z,101506.00
2022-08-08T21:02:26.652Z,101506.00
2022-08-08T21:05:01.268Z,101507.00
2022-08-08T21:07:47.597Z,101513.00
2022-08-08T21:10:20.688Z,101511.00
2022-08-08T21:12:54.520Z,101514.00
2022-08-08T21:16:05.149Z,101510.00
2022-08-08T21:18:12.180Z,101512.00
2022-08-08T21:20:42.440Z,101513.00
2022-08-08T21:23:13.086Z,101517.00
2022-08-08T21:25:48.768Z,101511.00
2022-08-08T21:28:19.549Z,101520.00
2022-08-08T21:31:23.177Z,101517.00
2022-08-08T21:33:53.091Z,101518.00
2022-08-08T21:36:28.612Z,101515.00
2022-08-08T21:38:58.144Z,101511.00
2022-08-08T21:41:38.372Z,101521.00
2022-08-08T21:44:14.843Z,101523.00
2022-08-08T21:48:05.363Z,101527.00
2022-08-08T21:49:32.957Z,101522.00
2022-08-08T21:54:32.314Z,101527.00
2022-08-08T21:54:54.128Z,101530.00
2022-08-08T21:57:30.035Z,101537.00
2022-08-08T22:00:14.197Z,101542.00
2022-08-08T22:02:44.313Z,101535.00
2022-08-08T22:05:14.800Z,101524.00
2022-08-08T22:07:47.534Z,101536.00
2022-08-08T22:10:18.585Z,101535.00
2022-08-08T22:13:17.481Z,101534.00
2022-08-08T22:15:59.616Z,101540.00
2022-08-08T22:18:33.562Z,101527.00
2022-08-08T22:21:14.157Z,101530.00
2022-08-08T22:23:49.501Z,101527.00
2022-08-08T22:26:29.134Z,101528.00
2022-08-08T22:29:14.107Z,101525.00
2022-08-08T22:32:02.308Z,101528.00
2022-08-08T22:34:39.496Z,101529.00
2022-08-08T22:37:14.818Z,101530.00
2022-08-08T22:40:00.243Z,101535.00
2022-08-08T22:42:32.050Z,101545.00
2022-08-08T22:45:12.955Z,101545.00
2022-08-08T22:47:48.891Z,101549.00
2022-08-08T22:50:26.535Z,101548.00
2022-08-08T22:54:32.566Z,101549.00
2022-08-08T22:55:57.745Z,101554.00
2022-08-08T22:58:28.678Z,101548.00
2022-08-08T23:00:59.972Z,101560.00
2022-08-08T23:03:34.173Z,101550.00
2022-08-08T23:06:17.838Z,101557.00
2022-08-08T23:08:55.964Z,101551.00
2022-08-08T23:11:31.127Z,101554.00
2022-08-08T23:14:19.073Z,101559.00
2022-08-08T23:16:54.399Z,101561.00
2022-08-08T23:19:31.079Z,101577.00
2022-08-08T23:22:05.652Z,101570.00
2022-08-08T23:24:41.439Z,101563.00
2022-08-08T23:27:37.566Z,101566.00
2022-08-08T23:30:04.451Z,101566.00
2022-08-08T23:32:33.080Z,101575.00
2022-08-08T23:35:01.092Z,101569.00
2022-08-08T23:38:00.766Z,101564.00
2022-08-08T23:40:23.537Z,101567.00
2022-08-08T23:42:51.794Z,101569.00
2022-08-08T23:45:19.482Z,101570.00
2022-08-08T23:49:07.122Z,101567.00
2022-08-08T23:50:57.067Z,101563.00
2022-08-08T23:54:04.742Z,101566.00
2022-08-08T23:56:12.991Z,101570.00
2022-08-08T23:58:42.920Z,101561.00
